sensor_id;sensor_type;location;lat;lon;timestamp;temperature;humidity
37324;DHT22;23205;49.986;18.950;2022-10-22T00:01:18;10.00;99.90
37324;DHT22;23205;49.986;18.950;2022-10-22T00:06:19;9.90;99.90
37324;DHT22;23205;49.986;18.950;2022-10-22T00:11:20;9.90;99.90
37324;DHT22;23205;49.986;18.950;2022-10-22T00:16:21;10.00;99.90
37324;DHT22;23205;49.986;18.950;2022-10-22T00:21:22;9.90;99.90
37324;DHT22;23205;49.986;18.950;2022-10-22T00:26:23;10.00;99.90
37324;DHT22;23205;49.986;18.950;2022-10-22T00:31:24;9.70;99.90
37324;DHT22;23205;49.986;18.950;2022-10-22T00:36:25;9.80;99.90
37324;DHT22;23205;49.986;18.950;2022-10-22T00:41:25;9.90;99.90
37324;DHT22;23205;49.986;18.950;2022-10-22T00:46:27;9.90;99.90
37324;DHT22;23205;49.986;18.950;2022-10-22T00:51:31;9.80;99.90
37324;DHT22;23205;49.986;18.950;2022-10-22T00:56:33;9.90;99.90
37324;DHT22;23205;49.986;18.950;2022-10-22T01:01:33;9.90;99.90
37324;DHT22;23205;49.986;18.950;2022-10-22T01:06:34;9.90;99.90
37324;DHT22;23205;49.986;18.950;2022-10-22T01:22:33;9.50;99.90
37324;DHT22;23205;49.986;18.950;2022-10-22T01:28:05;9.50;99.90
37324;DHT22;23205;49.986;18.950;2022-10-22T01:33:11;9.40;99.90
37324;DHT22;23205;49.986;18.950;2022-10-22T01:38:18;9.30;99.90
37324;DHT22;23205;49.986;18.950;2022-10-22T01:43:19;9.30;99.90
37324;DHT22;23205;49.986;18.950;2022-10-22T01:59:33;9.10;99.90
37324;DHT22;23205;49.986;18.950;2022-10-22T02:04:59;9.20;99.90
37324;DHT22;23205;49.986;18.950;2022-10-22T02:10:03;9.30;99.90
37324;DHT22;23205;49.986;18.950;2022-10-22T02:15:05;9.40;99.90
37324;DHT22;23205;49.986;18.950;2022-10-22T02:20:19;9.50;99.90
37324;DHT22;23205;49.986;18.950;2022-10-22T02:25:24;9.60;99.90
37324;DHT22;23205;49.986;18.950;2022-10-22T02:30:27;9.60;99.90
37324;DHT22;23205;49.986;18.950;2022-10-22T02:35:29;9.70;99.90
37324;DHT22;23205;49.986;18.950;2022-10-22T02:40:30;9.70;99.90
37324;DHT22;23205;49.986;18.950;2022-10-22T02:45:32;9.80;99.90
37324;DHT22;23205;49.986;18.950;2022-10-22T02:50:34;9.80;99.90
37324;DHT22;23205;49.986;18.950;2022-10-22T02:55:34;9.70;99.90
37324;DHT22;23205;49.986;18.950;2022-10-22T03:00:35;9.70;99.90
37324;DHT22;23205;49.986;18.950;2022-10-22T03:05:36;9.70;99.90
37324;DHT22;23205;49.986;18.950;2022-10-22T03:10:37;9.70;99.90
37324;DHT22;23205;49.986;18.950;2022-10-22T03:15:37;9.70;99.90
37324;DHT22;23205;49.986;18.950;2022-10-22T03:20:38;9.60;99.90
37324;DHT22;23205;49.986;18.950;2022-10-22T03:25:40;9.60;99.90
37324;DHT22;23205;49.986;18.950;2022-10-22T03:30:42;9.60;99.90
37324;DHT22;23205;49.986;18.950;2022-10-22T03:35:44;9.50;99.90
37324;DHT22;23205;49.986;18.950;2022-10-22T03:40:45;9.50;99.90
37324;DHT22;23205;49.986;18.950;2022-10-22T03:45:47;9.50;99.90
37324;DHT22;23205;49.986;18.950;2022-10-22T03:50:48;9.50;99.90
37324;DHT22;23205;49.986;18.950;2022-10-22T03:55:49;9.60;99.90
37324;DHT22;23205;49.986;18.950;2022-10-22T04:00:50;9.60;99.90
37324;DHT22;23205;49.986;18.950;2022-10-22T04:05:50;9.50;99.90
37324;DHT22;23205;49.986;18.950;2022-10-22T04:10:51;9.40;99.90
37324;DHT22;23205;49.986;18.950;2022-10-22T04:15:52;9.50;99.90
37324;DHT22;23205;49.986;18.950;2022-10-22T04:20:52;9.50;99.90
37324;DHT22;23205;49.986;18.950;2022-10-22T04:26:02;9.40;99.90
37324;DHT22;23205;49.986;18.950;2022-10-22T04:31:08;9.40;99.90
37324;DHT22;23205;49.986;18.950;2022-10-22T04:36:15;9.40;99.90
37324;DHT22;23205;49.986;18.950;2022-10-22T04:41:19;9.40;99.90
37324;DHT22;23205;49.986;18.950;2022-10-22T04:46:21;9.40;99.90
37324;DHT22;23205;49.986;18.950;2022-10-22T04:51:23;9.40;99.90
37324;DHT22;23205;49.986;18.950;2022-10-22T04:56:27;9.40;99.90
37324;DHT22;23205;49.986;18.950;2022-10-22T05:06:32;9.40;99.90
37324;DHT22;23205;49.986;18.950;2022-10-22T05:11:36;9.30;99.90
37324;DHT22;23205;49.986;18.950;2022-10-22T05:16:37;9.30;99.90
37324;DHT22;23205;49.986;18.950;2022-10-22T05:21:38;9.40;99.90
37324;DHT22;23205;49.986;18.950;2022-10-22T05:26:39;9.30;99.90
37324;DHT22;23205;49.986;18.950;2022-10-22T05:31:40;9.30;99.90
37324;DHT22;23205;49.986;18.950;2022-10-22T05:36:41;9.20;99.90
37324;DHT22;23205;49.986;18.950;2022-10-22T05:41:41;9.20;99.90
37324;DHT22;23205;49.986;18.950;2022-10-22T05:46:42;9.10;99.90
37324;DHT22;23205;49.986;18.950;2022-10-22T05:51:43;9.10;99.90
37324;DHT22;23205;49.986;18.950;2022-10-22T05:56:45;9.30;99.90
37324;DHT22;23205;49.986;18.950;2022-10-22T06:01:45;9.20;99.90
37324;DHT22;23205;49.986;18.950;2022-10-22T06:06:48;9.30;99.90
37324;DHT22;23205;49.986;18.950;2022-10-22T06:11:50;9.40;99.90
37324;DHT22;23205;49.986;18.950;2022-10-22T06:16:51;9.50;99.90
37324;DHT22;23205;49.986;18.950;2022-10-22T06:21:52;9.60;99.90
37324;DHT22;23205;49.986;18.950;2022-10-22T06:26:53;9.80;99.90
37324;DHT22;23205;49.986;18.950;2022-10-22T06:31:54;10.00;99.90
37324;DHT22;23205;49.986;18.950;2022-10-22T06:36:54;10.20;99.90
37324;DHT22;23205;49.986;18.950;2022-10-22T06:41:55;10.40;99.90
37324;DHT22;23205;49.986;18.950;2022-10-22T06:46:56;10.80;99.90
37324;DHT22;23205;49.986;18.950;2022-10-22T06:51:56;11.10;99.90
37324;DHT22;23205;49.986;18.950;2022-10-22T06:56:58;11.20;99.90
37324;DHT22;23205;49.986;18.950;2022-10-22T07:01:59;11.20;99.90
37324;DHT22;23205;49.986;18.950;2022-10-22T07:07:00;11.30;99.90
37324;DHT22;23205;49.986;18.950;2022-10-22T07:12:00;11.50;99.90
37324;DHT22;23205;49.986;18.950;2022-10-22T07:17:01;11.60;99.90
37324;DHT22;23205;49.986;18.950;2022-10-22T07:22:02;11.60;99.90
37324;DHT22;23205;49.986;18.950;2022-10-22T07:27:03;11.40;99.90
37324;DHT22;23205;49.986;18.950;2022-10-22T07:32:04;11.50;99.90
37324;DHT22;23205;49.986;18.950;2022-10-22T07:37:04;11.60;99.90
37324;DHT22;23205;49.986;18.950;2022-10-22T07:42:05;11.30;99.90
37324;DHT22;23205;49.986;18.950;2022-10-22T07:47:06;11.40;99.90
37324;DHT22;23205;49.986;18.950;2022-10-22T07:52:07;11.40;99.90
37324;DHT22;23205;49.986;18.950;2022-10-22T07:57:08;11.40;99.90
37324;DHT22;23205;49.986;18.950;2022-10-22T08:02:10;11.60;99.90
37324;DHT22;23205;49.986;18.950;2022-10-22T08:07:11;11.70;99.90
37324;DHT22;23205;49.986;18.950;2022-10-22T08:12:12;11.70;99.90
37324;DHT22;23205;49.986;18.950;2022-10-22T08:17:13;11.70;99.90
37324;DHT22;23205;49.986;18.950;2022-10-22T08:22:14;11.70;99.90
37324;DHT22;23205;49.986;18.950;2022-10-22T08:27:15;11.70;99.90
37324;DHT22;23205;49.986;18.950;2022-10-22T08:32:16;11.70;99.90
37324;DHT22;23205;49.986;18.950;2022-10-22T08:37:17;11.70;99.90
37324;DHT22;23205;49.986;18.950;2022-10-22T08:52:43;12.00;99.90
37324;DHT22;23205;49.986;18.950;2022-10-22T08:58:20;12.10;99.90
37324;DHT22;23205;49.986;18.950;2022-10-22T09:08:43;12.20;99.90
37324;DHT22;23205;49.986;18.950;2022-10-22T09:13:45;12.30;99.90
37324;DHT22;23205;49.986;18.950;2022-10-22T09:19:08;12.40;99.90
37324;DHT22;23205;49.986;18.950;2022-10-22T09:24:12;12.50;99.90
37324;DHT22;23205;49.986;18.950;2022-10-22T09:29:20;12.60;99.90
37324;DHT22;23205;49.986;18.950;2022-10-22T09:34:22;12.60;99.90
37324;DHT22;23205;49.986;18.950;2022-10-22T09:39:26;12.70;99.90
37324;DHT22;23205;49.986;18.950;2022-10-22T09:44:27;12.70;99.90
37324;DHT22;23205;49.986;18.950;2022-10-22T09:49:29;12.80;99.90
37324;DHT22;23205;49.986;18.950;2022-10-22T09:54:40;12.90;99.90
37324;DHT22;23205;49.986;18.950;2022-10-22T09:59:42;13.10;99.90
37324;DHT22;23205;49.986;18.950;2022-10-22T10:04:52;13.20;99.90
37324;DHT22;23205;49.986;18.950;2022-10-22T10:09:54;13.10;99.90
37324;DHT22;23205;49.986;18.950;2022-10-22T10:25:56;13.10;99.90
37324;DHT22;23205;49.986;18.950;2022-10-22T10:31:19;13.10;99.90
37324;DHT22;23205;49.986;18.950;2022-10-22T11:07:50;12.30;99.90
37324;DHT22;23205;49.986;18.950;2022-10-22T11:12:56;12.30;99.90
37324;DHT22;23205;49.986;18.950;2022-10-22T11:18:23;12.30;99.90
37324;DHT22;23205;49.986;18.950;2022-10-22T11:23:34;12.40;99.90
37324;DHT22;23205;49.986;18.950;2022-10-22T11:28:43;12.40;99.90
37324;DHT22;23205;49.986;18.950;2022-10-22T11:38:54;12.40;99.90
37324;DHT22;23205;49.986;18.950;2022-10-22T11:44:17;12.50;99.90
37324;DHT22;23205;49.986;18.950;2022-10-22T11:49:41;12.70;99.90
37324;DHT22;23205;49.986;18.950;2022-10-22T11:54:45;12.80;99.90
37324;DHT22;23205;49.986;18.950;2022-10-22T11:59:47;12.80;99.90
37324;DHT22;23205;49.986;18.950;2022-10-22T12:04:51;12.70;99.90
37324;DHT22;23205;49.986;18.950;2022-10-22T12:09:52;12.80;99.90
37324;DHT22;23205;49.986;18.950;2022-10-22T12:14:57;12.80;99.90
37324;DHT22;23205;49.986;18.950;2022-10-22T12:20:03;12.60;99.90
37324;DHT22;23205;49.986;18.950;2022-10-22T12:25:24;12.70;99.90
37324;DHT22;23205;49.986;18.950;2022-10-22T12:30:34;12.80;99.90
37324;DHT22;23205;49.986;18.950;2022-10-22T12:35:42;12.80;99.90
37324;DHT22;23205;49.986;18.950;2022-10-22T12:40:46;12.80;99.90
37324;DHT22;23205;49.986;18.950;2022-10-22T12:45:49;12.90;99.90
37324;DHT22;23205;49.986;18.950;2022-10-22T12:50:56;12.90;99.90
37324;DHT22;23205;49.986;18.950;2022-10-22T12:56:03;12.90;99.90
37324;DHT22;23205;49.986;18.950;2022-10-22T13:01:05;12.90;99.90
37324;DHT22;23205;49.986;18.950;2022-10-22T13:11:12;12.80;99.90
37324;DHT22;23205;49.986;18.950;2022-10-22T13:16:20;12.70;99.90
37324;DHT22;23205;49.986;18.950;2022-10-22T13:21:35;12.50;99.90
37324;DHT22;23205;49.986;18.950;2022-10-22T13:26:37;12.30;99.90
37324;DHT22;23205;49.986;18.950;2022-10-22T13:31:44;12.30;99.90
37324;DHT22;23205;49.986;18.950;2022-10-22T13:36:45;12.10;99.90
37324;DHT22;23205;49.986;18.950;2022-10-22T13:41:47;12.10;99.90
37324;DHT22;23205;49.986;18.950;2022-10-22T13:46:51;12.00;99.90
37324;DHT22;23205;49.986;18.950;2022-10-22T13:51:52;11.90;99.90
37324;DHT22;23205;49.986;18.950;2022-10-22T13:56:53;12.00;99.90
37324;DHT22;23205;49.986;18.950;2022-10-22T14:01:53;12.00;99.90
37324;DHT22;23205;49.986;18.950;2022-10-22T14:06:56;11.80;99.90
37324;DHT22;23205;49.986;18.950;2022-10-22T14:11:57;11.80;99.90
37324;DHT22;23205;49.986;18.950;2022-10-22T14:16:57;11.90;99.90
37324;DHT22;23205;49.986;18.950;2022-10-22T14:21:58;11.90;99.90
37324;DHT22;23205;49.986;18.950;2022-10-22T14:26:59;12.00;99.90
37324;DHT22;23205;49.986;18.950;2022-10-22T14:32:00;11.90;99.90
37324;DHT22;23205;49.986;18.950;2022-10-22T14:37:00;11.80;99.90
37324;DHT22;23205;49.986;18.950;2022-10-22T14:42:01;11.80;99.90
37324;DHT22;23205;49.986;18.950;2022-10-22T14:47:02;11.70;99.90
37324;DHT22;23205;49.986;18.950;2022-10-22T14:52:03;11.70;99.90
37324;DHT22;23205;49.986;18.950;2022-10-22T14:57:04;11.70;99.90
37324;DHT22;23205;49.986;18.950;2022-10-22T15:02:05;11.60;99.90
37324;DHT22;23205;49.986;18.950;2022-10-22T15:07:06;11.60;99.90
37324;DHT22;23205;49.986;18.950;2022-10-22T15:12:06;11.50;99.90
37324;DHT22;23205;49.986;18.950;2022-10-22T15:17:07;11.50;99.90
37324;DHT22;23205;49.986;18.950;2022-10-22T15:22:11;11.50;99.90
37324;DHT22;23205;49.986;18.950;2022-10-22T15:27:13;11.50;99.90
37324;DHT22;23205;49.986;18.950;2022-10-22T15:32:13;11.50;99.90
37324;DHT22;23205;49.986;18.950;2022-10-22T15:37:14;11.50;99.90
37324;DHT22;23205;49.986;18.950;2022-10-22T15:42:15;11.50;99.90
37324;DHT22;23205;49.986;18.950;2022-10-22T15:47:16;11.60;99.90
37324;DHT22;23205;49.986;18.950;2022-10-22T15:52:16;11.50;99.90
37324;DHT22;23205;49.986;18.950;2022-10-22T15:57:17;11.40;99.90
37324;DHT22;23205;49.986;18.950;2022-10-22T16:02:18;11.40;99.90
37324;DHT22;23205;49.986;18.950;2022-10-22T16:07:19;11.40;99.90
37324;DHT22;23205;49.986;18.950;2022-10-22T16:12:19;11.30;99.90
37324;DHT22;23205;49.986;18.950;2022-10-22T16:17:20;11.20;99.90
37324;DHT22;23205;49.986;18.950;2022-10-22T16:22:21;11.20;99.90
37324;DHT22;23205;49.986;18.950;2022-10-22T16:27:22;11.20;99.90
37324;DHT22;23205;49.986;18.950;2022-10-22T16:32:22;11.10;99.90
37324;DHT22;23205;49.986;18.950;2022-10-22T16:37:23;11.10;99.90
37324;DHT22;23205;49.986;18.950;2022-10-22T16:42:24;11.00;99.90
37324;DHT22;23205;49.986;18.950;2022-10-22T16:47:25;11.00;99.90
37324;DHT22;23205;49.986;18.950;2022-10-22T16:52:26;11.00;99.90
37324;DHT22;23205;49.986;18.950;2022-10-22T16:57:27;11.00;99.90
37324;DHT22;23205;49.986;18.950;2022-10-22T17:02:28;10.90;99.90
37324;DHT22;23205;49.986;18.950;2022-10-22T17:07:29;11.00;99.90
37324;DHT22;23205;49.986;18.950;2022-10-22T17:12:29;10.90;99.90
37324;DHT22;23205;49.986;18.950;2022-10-22T17:17:34;10.90;99.90
37324;DHT22;23205;49.986;18.950;2022-10-22T17:22:35;10.80;99.90
37324;DHT22;23205;49.986;18.950;2022-10-22T17:27:36;10.80;99.90
37324;DHT22;23205;49.986;18.950;2022-10-22T17:32:37;10.90;99.90
37324;DHT22;23205;49.986;18.950;2022-10-22T17:37:38;10.80;99.90
37324;DHT22;23205;49.986;18.950;2022-10-22T17:42:39;10.80;99.90
37324;DHT22;23205;49.986;18.950;2022-10-22T17:47:40;10.80;99.90
37324;DHT22;23205;49.986;18.950;2022-10-22T17:52:40;10.80;99.90
37324;DHT22;23205;49.986;18.950;2022-10-22T17:57:42;10.70;99.90
37324;DHT22;23205;49.986;18.950;2022-10-22T18:02:42;10.80;99.90
37324;DHT22;23205;49.986;18.950;2022-10-22T18:07:43;10.70;99.90
37324;DHT22;23205;49.986;18.950;2022-10-22T18:12:44;10.80;99.90
37324;DHT22;23205;49.986;18.950;2022-10-22T18:17:45;10.80;99.90
37324;DHT22;23205;49.986;18.950;2022-10-22T18:22:47;10.80;99.90
37324;DHT22;23205;49.986;18.950;2022-10-22T18:27:48;10.80;99.90
37324;DHT22;23205;49.986;18.950;2022-10-22T18:32:49;10.80;99.90
37324;DHT22;23205;49.986;18.950;2022-10-22T18:37:51;10.80;99.90
37324;DHT22;23205;49.986;18.950;2022-10-22T18:42:51;10.70;99.90
37324;DHT22;23205;49.986;18.950;2022-10-22T18:47:52;10.80;99.90
37324;DHT22;23205;49.986;18.950;2022-10-22T18:52:53;10.80;99.90
37324;DHT22;23205;49.986;18.950;2022-10-22T18:57:54;10.80;99.90
37324;DHT22;23205;49.986;18.950;2022-10-22T19:02:55;10.80;99.90
37324;DHT22;23205;49.986;18.950;2022-10-22T19:07:56;10.90;99.90
37324;DHT22;23205;49.986;18.950;2022-10-22T19:12:57;10.90;99.90
37324;DHT22;23205;49.986;18.950;2022-10-22T19:17:58;10.90;99.90
37324;DHT22;23205;49.986;18.950;2022-10-22T19:22:58;10.90;99.90
37324;DHT22;23205;49.986;18.950;2022-10-22T19:28:00;11.00;99.90
37324;DHT22;23205;49.986;18.950;2022-10-22T19:33:00;11.00;99.90
37324;DHT22;23205;49.986;18.950;2022-10-22T19:38:01;11.00;99.90
37324;DHT22;23205;49.986;18.950;2022-10-22T19:43:02;11.00;99.90
37324;DHT22;23205;49.986;18.950;2022-10-22T19:48:03;11.00;99.90
37324;DHT22;23205;49.986;18.950;2022-10-22T19:53:04;11.10;99.90
37324;DHT22;23205;49.986;18.950;2022-10-22T19:58:04;11.10;99.90
37324;DHT22;23205;49.986;18.950;2022-10-22T20:03:05;11.10;99.90
37324;DHT22;23205;49.986;18.950;2022-10-22T20:08:06;11.10;99.90
37324;DHT22;23205;49.986;18.950;2022-10-22T20:13:07;11.10;99.90
37324;DHT22;23205;49.986;18.950;2022-10-22T20:18:08;11.10;99.90
37324;DHT22;23205;49.986;18.950;2022-10-22T20:23:08;11.20;99.90
37324;DHT22;23205;49.986;18.950;2022-10-22T20:28:10;11.20;99.90
37324;DHT22;23205;49.986;18.950;2022-10-22T20:33:13;11.20;99.90
37324;DHT22;23205;49.986;18.950;2022-10-22T20:38:14;11.20;99.90
37324;DHT22;23205;49.986;18.950;2022-10-22T20:43:15;11.10;99.90
37324;DHT22;23205;49.986;18.950;2022-10-22T20:48:15;11.20;99.90
37324;DHT22;23205;49.986;18.950;2022-10-22T20:53:16;11.20;99.90
37324;DHT22;23205;49.986;18.950;2022-10-22T20:58:17;11.30;99.90
37324;DHT22;23205;49.986;18.950;2022-10-22T21:03:18;11.30;99.90
37324;DHT22;23205;49.986;18.950;2022-10-22T21:08:19;11.30;99.90
37324;DHT22;23205;49.986;18.950;2022-10-22T21:13:19;11.40;99.90
37324;DHT22;23205;49.986;18.950;2022-10-22T21:18:20;11.30;99.90
37324;DHT22;23205;49.986;18.950;2022-10-22T21:23:21;11.40;99.90
37324;DHT22;23205;49.986;18.950;2022-10-22T21:28:22;11.40;99.90
37324;DHT22;23205;49.986;18.950;2022-10-22T21:33:23;11.40;99.90
37324;DHT22;23205;49.986;18.950;2022-10-22T21:38:23;11.50;99.90
37324;DHT22;23205;49.986;18.950;2022-10-22T21:43:25;11.50;99.90
37324;DHT22;23205;49.986;18.950;2022-10-22T21:48:25;11.60;99.90
37324;DHT22;23205;49.986;18.950;2022-10-22T21:53:26;11.60;99.90
37324;DHT22;23205;49.986;18.950;2022-10-22T21:58:27;11.60;99.90
37324;DHT22;23205;49.986;18.950;2022-10-22T22:03:28;11.60;99.90
37324;DHT22;23205;49.986;18.950;2022-10-22T22:08:29;11.70;99.90
37324;DHT22;23205;49.986;18.950;2022-10-22T22:13:30;11.60;99.90
37324;DHT22;23205;49.986;18.950;2022-10-22T22:18:31;11.70;99.90
37324;DHT22;23205;49.986;18.950;2022-10-22T22:23:38;11.60;99.90
37324;DHT22;23205;49.986;18.950;2022-10-22T22:28:40;11.70;99.90
37324;DHT22;23205;49.986;18.950;2022-10-22T22:33:41;11.60;99.90
37324;DHT22;23205;49.986;18.950;2022-10-22T22:38:42;11.60;99.90
37324;DHT22;23205;49.986;18.950;2022-10-22T22:43:43;11.60;99.90
37324;DHT22;23205;49.986;18.950;2022-10-22T22:48:46;11.60;99.90
37324;DHT22;23205;49.986;18.950;2022-10-22T22:53:47;11.70;99.90
37324;DHT22;23205;49.986;18.950;2022-10-22T22:58:48;11.60;99.90
37324;DHT22;23205;49.986;18.950;2022-10-22T23:03:55;11.60;99.90
37324;DHT22;23205;49.986;18.950;2022-10-22T23:08:57;11.60;99.90
37324;DHT22;23205;49.986;18.950;2022-10-22T23:14:00;11.70;99.90
37324;DHT22;23205;49.986;18.950;2022-10-22T23:19:01;11.60;99.90
37324;DHT22;23205;49.986;18.950;2022-10-22T23:24:05;11.60;99.90
37324;DHT22;23205;49.986;18.950;2022-10-22T23:29:17;11.50;99.90
37324;DHT22;23205;49.986;18.950;2022-10-22T23:34:22;11.60;99.90
37324;DHT22;23205;49.986;18.950;2022-10-22T23:39:25;11.60;99.90
37324;DHT22;23205;49.986;18.950;2022-10-22T23:44:35;11.60;99.90
37324;DHT22;23205;49.986;18.950;2022-10-22T23:49:49;11.60;99.90
37324;DHT22;23205;49.986;18.950;2022-10-22T23:54:50;11.70;99.90
37324;DHT22;23205;49.986;18.950;2022-10-22T23:59:52;11.60;99.90
